sensor_id;sensor_type;location;lat;lon;timestamp;pressure;altitude;pressure_sealevel;temperature;humidity
71964;BME280;59834;52.124;5.422;2022-08-21T00:01:41;101770.69;;;14.40;81.84
71964;BME280;59834;52.124;5.422;2022-08-21T00:04:09;101767.50;;;14.35;82.47
71964;BME280;59834;52.124;5.422;2022-08-21T00:06:36;101765.59;;;14.37;82.22
71964;BME280;59834;52.124;5.422;2022-08-21T00:09:06;101766.38;;;14.39;82.59
71964;BME280;59834;52.124;5.422;2022-08-21T00:11:37;101776.16;;;14.37;82.74
71964;BME280;59834;52.124;5.422;2022-08-21T00:14:07;101772.03;;;14.33;82.47
71964;BME280;59834;52.124;5.422;2022-08-21T00:16:34;101776.53;;;14.31;81.94
71964;BME280;59834;52.124;5.422;2022-08-21T00:19:01;101767.78;;;14.30;82.31
71964;BME280;59834;52.124;5.422;2022-08-21T00:21:28;101772.09;;;14.31;82.30
71964;BME280;59834;52.124;5.422;2022-08-21T00:23:55;101779.09;;;14.32;82.74
71964;BME280;59834;52.124;5.422;2022-08-21T00:26:21;101774.22;;;14.26;82.35
71964;BME280;59834;52.124;5.422;2022-08-21T00:28:47;101769.34;;;14.20;82.18
71964;BME280;59834;52.124;5.422;2022-08-21T00:31:15;101768.03;;;14.13;82.96
71964;BME280;59834;52.124;5.422;2022-08-21T00:33:42;101768.88;;;14.13;82.83
71964;BME280;59834;52.124;5.422;2022-08-21T00:36:09;101766.53;;;14.09;82.97
71964;BME280;59834;52.124;5.422;2022-08-21T00:38:37;101767.78;;;14.03;82.80
71964;BME280;59834;52.124;5.422;2022-08-21T00:41:06;101763.47;;;14.02;83.14
71964;BME280;59834;52.124;5.422;2022-08-21T00:43:54;101761.84;;;14.00;83.48
71964;BME280;59834;52.124;5.422;2022-08-21T00:46:21;101756.66;;;13.98;83.71
71964;BME280;59834;52.124;5.422;2022-08-21T00:48:53;101754.03;;;13.98;83.67
71964;BME280;59834;52.124;5.422;2022-08-21T00:51:55;101758.28;;;14.01;83.66
71964;BME280;59834;52.124;5.422;2022-08-21T00:54:24;101765.25;;;14.02;83.40
71964;BME280;59834;52.124;5.422;2022-08-21T00:56:56;101769.09;;;13.96;83.68
71964;BME280;59834;52.124;5.422;2022-08-21T00:59:27;101764.09;;;13.91;83.87
71964;BME280;59834;52.124;5.422;2022-08-21T01:01:56;101768.72;;;13.88;83.52
71964;BME280;59834;52.124;5.422;2022-08-21T01:04:23;101766.38;;;13.83;83.78
71964;BME280;59834;52.124;5.422;2022-08-21T01:06:49;101759.44;;;13.82;84.05
71964;BME280;59834;52.124;5.422;2022-08-21T01:09:18;101758.59;;;13.82;84.18
71964;BME280;59834;52.124;5.422;2022-08-21T01:11:45;101757.84;;;13.80;84.33
71964;BME280;59834;52.124;5.422;2022-08-21T01:14:13;101754.56;;;13.76;84.14
71964;BME280;59834;52.124;5.422;2022-08-21T01:16:43;101755.50;;;13.75;84.22
71964;BME280;59834;52.124;5.422;2022-08-21T01:19:10;101752.88;;;13.75;84.30
71964;BME280;59834;52.124;5.422;2022-08-21T01:21:37;101755.59;;;13.74;83.77
71964;BME280;59834;52.124;5.422;2022-08-21T01:24:04;101752.22;;;13.72;84.01
71964;BME280;59834;52.124;5.422;2022-08-21T01:26:33;101754.75;;;13.73;83.92
71964;BME280;59834;52.124;5.422;2022-08-21T01:29:13;101759.16;;;13.73;84.10
71964;BME280;59834;52.124;5.422;2022-08-21T01:31:41;101761.88;;;13.71;84.20
71964;BME280;59834;52.124;5.422;2022-08-21T01:34:08;101761.03;;;13.71;83.93
71964;BME280;59834;52.124;5.422;2022-08-21T01:36:35;101754.16;;;13.68;84.30
71964;BME280;59834;52.124;5.422;2022-08-21T01:39:03;101757.69;;;13.68;84.19
71964;BME280;59834;52.124;5.422;2022-08-21T01:41:30;101758.03;;;13.62;84.14
71964;BME280;59834;52.124;5.422;2022-08-21T01:43:56;101759.91;;;13.60;84.23
71964;BME280;59834;52.124;5.422;2022-08-21T01:46:23;101757.56;;;13.56;84.04
71964;BME280;59834;52.124;5.422;2022-08-21T01:48:49;101752.56;;;13.51;84.47
71964;BME280;59834;52.124;5.422;2022-08-21T01:51:16;101748.47;;;13.47;84.99
71964;BME280;59834;52.124;5.422;2022-08-21T01:53:42;101750.53;;;13.42;84.53
71964;BME280;59834;52.124;5.422;2022-08-21T01:56:12;101755.13;;;13.38;84.29
71964;BME280;59834;52.124;5.422;2022-08-21T01:58:40;101745.81;;;13.33;84.16
71964;BME280;59834;52.124;5.422;2022-08-21T02:01:09;101751.28;;;13.30;84.63
71964;BME280;59834;52.124;5.422;2022-08-21T02:03:36;101747.13;;;13.26;84.29
71964;BME280;59834;52.124;5.422;2022-08-21T02:06:04;101750.75;;;13.23;84.04
71964;BME280;59834;52.124;5.422;2022-08-21T02:08:31;101747.22;;;13.24;84.15
71964;BME280;59834;52.124;5.422;2022-08-21T02:10:58;101746.44;;;13.22;85.02
71964;BME280;59834;52.124;5.422;2022-08-21T02:13:25;101740.25;;;13.23;85.05
71964;BME280;59834;52.124;5.422;2022-08-21T02:15:52;101737.34;;;13.28;84.83
71964;BME280;59834;52.124;5.422;2022-08-21T02:18:18;101740.75;;;13.30;85.48
71964;BME280;59834;52.124;5.422;2022-08-21T02:20:48;101737.34;;;13.28;85.09
71964;BME280;59834;52.124;5.422;2022-08-21T02:23:21;101734.06;;;13.24;85.29
71964;BME280;59834;52.124;5.422;2022-08-21T02:25:54;101734.06;;;13.24;85.85
71964;BME280;59834;52.124;5.422;2022-08-21T02:28:21;101728.88;;;13.23;85.75
71964;BME280;59834;52.124;5.422;2022-08-21T02:30:48;101735.81;;;13.24;86.16
71964;BME280;59834;52.124;5.422;2022-08-21T02:33:15;101725.41;;;13.22;85.63
71964;BME280;59834;52.124;5.422;2022-08-21T02:35:44;101725.69;;;13.17;85.32
71964;BME280;59834;52.124;5.422;2022-08-21T02:38:15;101724.94;;;13.15;85.32
71964;BME280;59834;52.124;5.422;2022-08-21T02:40:45;101727.75;;;13.12;85.78
71964;BME280;59834;52.124;5.422;2022-08-21T02:43:17;101727.81;;;13.11;86.08
71964;BME280;59834;52.124;5.422;2022-08-21T02:45:45;101719.28;;;13.07;86.43
71964;BME280;59834;52.124;5.422;2022-08-21T02:48:16;101722.09;;;13.04;85.86
71964;BME280;59834;52.124;5.422;2022-08-21T02:50:46;101716.09;;;13.02;86.10
71964;BME280;59834;52.124;5.422;2022-08-21T02:53:15;101714.59;;;12.98;86.06
71964;BME280;59834;52.124;5.422;2022-08-21T02:55:47;101714.78;;;12.95;85.62
71964;BME280;59834;52.124;5.422;2022-08-21T02:58:16;101712.81;;;12.98;85.70
71964;BME280;59834;52.124;5.422;2022-08-21T03:00:44;101716.28;;;12.99;86.16
71964;BME280;59834;52.124;5.422;2022-08-21T03:03:11;101711.97;;;12.98;85.70
71964;BME280;59834;52.124;5.422;2022-08-21T03:05:38;101708.69;;;12.94;86.08
71964;BME280;59834;52.124;5.422;2022-08-21T03:08:07;101711.56;;;12.90;85.77
71964;BME280;59834;52.124;5.422;2022-08-21T03:10:38;101705.56;;;12.88;86.06
71964;BME280;59834;52.124;5.422;2022-08-21T03:13:06;101697.88;;;12.85;86.23
71964;BME280;59834;52.124;5.422;2022-08-21T03:15:33;101703.31;;;12.82;86.25
71964;BME280;59834;52.124;5.422;2022-08-21T03:18:00;101706.09;;;12.79;86.26
71964;BME280;59834;52.124;5.422;2022-08-21T03:20:28;101701.97;;;12.74;86.50
71964;BME280;59834;52.124;5.422;2022-08-21T03:22:55;101704.84;;;12.70;86.84
71964;BME280;59834;52.124;5.422;2022-08-21T03:25:23;101705.69;;;12.70;86.76
71964;BME280;59834;52.124;5.422;2022-08-21T03:28:09;101698.88;;;12.68;86.73
71964;BME280;59834;52.124;5.422;2022-08-21T03:30:39;101702.34;;;12.68;87.05
71964;BME280;59834;52.124;5.422;2022-08-21T03:33:06;101704.97;;;12.68;86.87
71964;BME280;59834;52.124;5.422;2022-08-21T03:35:32;101705.97;;;12.66;86.78
71964;BME280;59834;52.124;5.422;2022-08-21T03:37:59;101702.50;;;12.65;86.89
71964;BME280;59834;52.124;5.422;2022-08-21T03:40:26;101695.38;;;12.67;87.17
71964;BME280;59834;52.124;5.422;2022-08-21T03:42:52;101698.19;;;12.64;86.72
71964;BME280;59834;52.124;5.422;2022-08-21T03:45:19;101699.28;;;12.60;87.28
71964;BME280;59834;52.124;5.422;2022-08-21T03:48:00;101691.50;;;12.59;87.02
71964;BME280;59834;52.124;5.422;2022-08-21T03:50:33;101694.03;;;12.60;87.75
71964;BME280;59834;52.124;5.422;2022-08-21T03:53:06;101693.19;;;12.60;86.90
71964;BME280;59834;52.124;5.422;2022-08-21T03:55:42;101698.56;;;12.58;87.09
71964;BME280;59834;52.124;5.422;2022-08-21T03:58:09;101694.22;;;12.57;87.59
71964;BME280;59834;52.124;5.422;2022-08-21T04:00:43;101690.00;;;12.55;87.54
71964;BME280;59834;52.124;5.422;2022-08-21T04:03:10;101693.47;;;12.55;87.60
71964;BME280;59834;52.124;5.422;2022-08-21T04:05:36;101699.69;;;12.54;87.78
71964;BME280;59834;52.124;5.422;2022-08-21T04:08:05;101690.34;;;12.48;87.52
71964;BME280;59834;52.124;5.422;2022-08-21T04:10:34;101702.66;;;12.48;88.24
71964;BME280;59834;52.124;5.422;2022-08-21T04:13:01;101698.31;;;12.47;87.52
71964;BME280;59834;52.124;5.422;2022-08-21T04:15:29;101699.25;;;12.46;88.02
71964;BME280;59834;52.124;5.422;2022-08-21T04:17:55;101696.63;;;12.46;87.84
71964;BME280;59834;52.124;5.422;2022-08-21T04:20:22;101697.66;;;12.43;87.96
71964;BME280;59834;52.124;5.422;2022-08-21T04:22:49;101706.47;;;12.42;87.74
71964;BME280;59834;52.124;5.422;2022-08-21T04:25:19;101703.06;;;12.40;88.33
71964;BME280;59834;52.124;5.422;2022-08-21T04:27:46;101698.75;;;12.39;88.18
71964;BME280;59834;52.124;5.422;2022-08-21T04:30:14;101708.31;;;12.40;88.21
71964;BME280;59834;52.124;5.422;2022-08-21T04:32:50;101703.94;;;12.41;87.42
71964;BME280;59834;52.124;5.422;2022-08-21T04:35:20;101703.00;;;12.42;88.07
71964;BME280;59834;52.124;5.422;2022-08-21T04:37:47;101695.00;;;12.43;88.14
71964;BME280;59834;52.124;5.422;2022-08-21T04:40:16;101695.00;;;12.43;87.91
71964;BME280;59834;52.124;5.422;2022-08-21T04:42:46;101694.94;;;12.45;87.96
71964;BME280;59834;52.124;5.422;2022-08-21T04:45:21;101696.44;;;12.49;87.99
71964;BME280;59834;52.124;5.422;2022-08-21T04:47:53;101695.34;;;12.53;88.19
71964;BME280;59834;52.124;5.422;2022-08-21T04:50:22;101687.47;;;12.53;87.81
71964;BME280;59834;52.124;5.422;2022-08-21T04:52:50;101691.03;;;12.52;88.26
71964;BME280;59834;52.124;5.422;2022-08-21T04:55:18;101698.91;;;12.52;87.90
71964;BME280;59834;52.124;5.422;2022-08-21T04:57:46;101691.88;;;12.53;88.07
71964;BME280;59834;52.124;5.422;2022-08-21T05:00:16;101689.06;;;12.56;87.66
71964;BME280;59834;52.124;5.422;2022-08-21T05:02:45;101697.50;;;12.61;87.38
71964;BME280;59834;52.124;5.422;2022-08-21T05:05:16;101700.53;;;12.69;87.08
71964;BME280;59834;52.124;5.422;2022-08-21T05:07:44;101707.22;;;12.74;87.55
71964;BME280;59834;52.124;5.422;2022-08-21T05:10:11;101709.28;;;12.84;87.50
71964;BME280;59834;52.124;5.422;2022-08-21T05:12:40;101714.00;;;12.93;87.38
71964;BME280;59834;52.124;5.422;2022-08-21T05:15:09;101716.19;;;13.01;87.04
71964;BME280;59834;52.124;5.422;2022-08-21T05:17:40;101717.41;;;13.09;87.03
71964;BME280;59834;52.124;5.422;2022-08-21T05:20:08;101719.56;;;13.17;86.77
71964;BME280;59834;52.124;5.422;2022-08-21T05:22:35;101723.47;;;13.26;86.37
71964;BME280;59834;52.124;5.422;2022-08-21T05:25:02;101723.94;;;13.75;86.40
71964;BME280;59834;52.124;5.422;2022-08-21T05:27:36;101720.25;;;15.50;80.93
71964;BME280;59834;52.124;5.422;2022-08-21T05:30:06;101720.19;;;16.84;75.18
71964;BME280;59834;52.124;5.422;2022-08-21T05:32:34;101708.06;;;17.72;70.59
71964;BME280;59834;52.124;5.422;2022-08-21T05:35:02;101707.28;;;18.14;68.87
71964;BME280;59834;52.124;5.422;2022-08-21T05:37:29;101713.50;;;18.57;67.10
71964;BME280;59834;52.124;5.422;2022-08-21T05:39:55;101711.00;;;18.97;65.83
71964;BME280;59834;52.124;5.422;2022-08-21T05:42:42;101714.69;;;19.06;64.94
71964;BME280;59834;52.124;5.422;2022-08-21T05:45:08;101709.34;;;19.27;64.65
71964;BME280;59834;52.124;5.422;2022-08-21T05:47:35;101714.00;;;19.65;63.82
71964;BME280;59834;52.124;5.422;2022-08-21T05:50:03;101708.88;;;19.83;63.24
71964;BME280;59834;52.124;5.422;2022-08-21T05:52:30;101701.81;;;20.22;61.94
71964;BME280;59834;52.124;5.422;2022-08-21T05:54:56;101704.19;;;20.64;60.81
71964;BME280;59834;52.124;5.422;2022-08-21T05:57:23;101703.31;;;20.93;60.28
71964;BME280;59834;52.124;5.422;2022-08-21T05:59:51;101699.91;;;21.01;59.43
71964;BME280;59834;52.124;5.422;2022-08-21T06:02:19;101697.91;;;21.12;59.50
71964;BME280;59834;52.124;5.422;2022-08-21T06:04:47;101698.47;;;21.16;59.22
71964;BME280;59834;52.124;5.422;2022-08-21T06:07:14;101695.88;;;20.97;59.53
71964;BME280;59834;52.124;5.422;2022-08-21T06:09:41;101698.94;;;20.92;60.41
71964;BME280;59834;52.124;5.422;2022-08-21T06:12:10;101702.31;;;20.94;60.06
71964;BME280;59834;52.124;5.422;2022-08-21T06:14:39;101704.41;;;21.00;60.42
71964;BME280;59834;52.124;5.422;2022-08-21T06:17:08;101709.91;;;21.26;60.20
71964;BME280;59834;52.124;5.422;2022-08-21T06:19:36;101693.94;;;21.26;60.31
71964;BME280;59834;52.124;5.422;2022-08-21T06:22:03;101701.03;;;21.45;60.03
71964;BME280;59834;52.124;5.422;2022-08-21T06:24:30;101694.50;;;21.30;60.21
71964;BME280;59834;52.124;5.422;2022-08-21T06:26:57;101708.91;;;21.37;60.29
71964;BME280;59834;52.124;5.422;2022-08-21T06:29:23;101700.94;;;21.37;60.40
71964;BME280;59834;52.124;5.422;2022-08-21T06:31:51;101696.19;;;21.21;61.44
71964;BME280;59834;52.124;5.422;2022-08-21T06:34:18;101698.81;;;21.40;61.19
71964;BME280;59834;52.124;5.422;2022-08-21T06:36:45;101697.44;;;21.27;61.06
71964;BME280;59834;52.124;5.422;2022-08-21T06:39:11;101694.56;;;21.10;62.53
71964;BME280;59834;52.124;5.422;2022-08-21T06:41:55;101691.66;;;21.31;61.78
71964;BME280;59834;52.124;5.422;2022-08-21T06:44:22;101699.41;;;21.25;62.11
71964;BME280;59834;52.124;5.422;2022-08-21T06:46:48;101698.31;;;21.17;62.47
71964;BME280;59834;52.124;5.422;2022-08-21T06:49:15;101701.19;;;20.97;63.79
71964;BME280;59834;52.124;5.422;2022-08-21T06:51:46;101710.06;;;20.68;64.08
71964;BME280;59834;52.124;5.422;2022-08-21T06:54:13;101708.50;;;20.36;64.88
71964;BME280;59834;52.124;5.422;2022-08-21T06:56:40;101700.47;;;19.47;68.30
71964;BME280;59834;52.124;5.422;2022-08-21T06:59:06;101701.22;;;18.98;70.54
71964;BME280;59834;52.124;5.422;2022-08-21T07:01:33;101701.38;;;18.75;71.95
71964;BME280;59834;52.124;5.422;2022-08-21T07:03:59;101696.41;;;18.71;72.00
71964;BME280;59834;52.124;5.422;2022-08-21T07:06:26;101702.03;;;18.56;72.24
71964;BME280;59834;52.124;5.422;2022-08-21T07:08:54;101703.94;;;18.33;73.56
71964;BME280;59834;52.124;5.422;2022-08-21T07:11:24;101702.41;;;18.31;73.47
71964;BME280;59834;52.124;5.422;2022-08-21T07:13:52;101695.09;;;18.23;74.15
71964;BME280;59834;52.124;5.422;2022-08-21T07:16:21;101697.97;;;18.31;74.37
71964;BME280;59834;52.124;5.422;2022-08-21T07:18:47;101694.06;;;18.35;74.51
71964;BME280;59834;52.124;5.422;2022-08-21T07:21:15;101693.81;;;18.38;74.53
71964;BME280;59834;52.124;5.422;2022-08-21T07:23:46;101696.09;;;18.43;73.94
71964;BME280;59834;52.124;5.422;2022-08-21T07:26:16;101691.88;;;18.41;74.81
71964;BME280;59834;52.124;5.422;2022-08-21T07:28:43;101691.38;;;18.47;74.91
71964;BME280;59834;52.124;5.422;2022-08-21T07:31:10;101697.84;;;18.54;74.74
71964;BME280;59834;52.124;5.422;2022-08-21T07:33:39;101700.97;;;18.59;74.83
71964;BME280;59834;52.124;5.422;2022-08-21T07:36:07;101703.22;;;18.64;74.67
71964;BME280;59834;52.124;5.422;2022-08-21T07:38:34;101695.25;;;18.75;74.05
71964;BME280;59834;52.124;5.422;2022-08-21T07:41:02;101701.13;;;18.78;73.95
71964;BME280;59834;52.124;5.422;2022-08-21T07:43:30;101697.34;;;18.81;74.67
71964;BME280;59834;52.124;5.422;2022-08-21T07:45:57;101702.72;;;18.91;74.06
71964;BME280;59834;52.124;5.422;2022-08-21T07:48:23;101699.59;;;19.06;74.10
71964;BME280;59834;52.124;5.422;2022-08-21T07:50:50;101699.13;;;19.22;73.61
71964;BME280;59834;52.124;5.422;2022-08-21T07:53:17;101696.91;;;19.27;72.56
71964;BME280;59834;52.124;5.422;2022-08-21T07:55:44;101701.06;;;19.20;73.21
71964;BME280;59834;52.124;5.422;2022-08-21T07:58:10;101703.28;;;19.15;73.29
71964;BME280;59834;52.124;5.422;2022-08-21T08:00:37;101702.88;;;19.20;73.33
71964;BME280;59834;52.124;5.422;2022-08-21T08:03:03;101702.72;;;19.12;73.85
71964;BME280;59834;52.124;5.422;2022-08-21T08:05:30;101713.34;;;19.12;74.16
71964;BME280;59834;52.124;5.422;2022-08-21T08:07:58;101699.97;;;19.23;73.84
71964;BME280;59834;52.124;5.422;2022-08-21T08:10:25;101702.81;;;19.41;73.77
71964;BME280;59834;52.124;5.422;2022-08-21T08:12:52;101699.53;;;19.58;72.37
71964;BME280;59834;52.124;5.422;2022-08-21T08:15:24;101694.84;;;19.71;72.23
71964;BME280;59834;52.124;5.422;2022-08-21T08:17:51;101688.03;;;19.88;72.16
71964;BME280;59834;52.124;5.422;2022-08-21T08:20:18;101689.59;;;20.00;71.88
71964;BME280;59834;52.124;5.422;2022-08-21T08:22:46;101681.91;;;20.07;70.99
71964;BME280;59834;52.124;5.422;2022-08-21T08:25:16;101684.84;;;20.14;71.03
71964;BME280;59834;52.124;5.422;2022-08-21T08:27:43;101681.22;;;20.15;70.68
71964;BME280;59834;52.124;5.422;2022-08-21T08:30:12;101689.75;;;20.28;70.77
71964;BME280;59834;52.124;5.422;2022-08-21T08:32:40;101684.88;;;20.23;70.16
71964;BME280;59834;52.124;5.422;2022-08-21T08:35:07;101678.00;;;20.31;70.92
71964;BME280;59834;52.124;5.422;2022-08-21T08:37:35;101683.59;;;20.37;69.38
71964;BME280;59834;52.124;5.422;2022-08-21T08:40:18;101693.78;;;20.42;70.82
71964;BME280;59834;52.124;5.422;2022-08-21T08:42:46;101687.38;;;20.64;69.31
71964;BME280;59834;52.124;5.422;2022-08-21T08:45:18;101693.53;;;20.64;69.38
71964;BME280;59834;52.124;5.422;2022-08-21T08:47:54;101691.59;;;20.66;69.63
71964;BME280;59834;52.124;5.422;2022-08-21T08:53:04;101691.75;;;21.02;68.91
71964;BME280;59834;52.124;5.422;2022-08-21T08:55:36;101680.00;;;21.05;68.27
71964;BME280;59834;52.124;5.422;2022-08-21T08:58:03;101681.78;;;21.14;68.34
71964;BME280;59834;52.124;5.422;2022-08-21T09:00:30;101683.84;;;21.39;67.65
71964;BME280;59834;52.124;5.422;2022-08-21T09:02:59;101680.50;;;21.55;67.38
71964;BME280;59834;52.124;5.422;2022-08-21T09:05:33;101681.41;;;21.74;66.29
71964;BME280;59834;52.124;5.422;2022-08-21T09:19:23;101664.94;;;22.50;63.34
71964;BME280;59834;52.124;5.422;2022-08-21T09:22:00;101672.91;;;22.42;63.55
71964;BME280;59834;52.124;5.422;2022-08-21T09:27:23;101671.81;;;21.81;64.74
71964;BME280;59834;52.124;5.422;2022-08-21T09:29:52;101674.25;;;21.92;64.15
71964;BME280;59834;52.124;5.422;2022-08-21T09:32:24;101676.44;;;21.79;65.22
71964;BME280;59834;52.124;5.422;2022-08-21T09:37:31;101676.38;;;22.06;63.63
71964;BME280;59834;52.124;5.422;2022-08-21T09:39:58;101677.47;;;22.31;62.50
71964;BME280;59834;52.124;5.422;2022-08-21T09:42:29;101677.00;;;22.36;62.82
71964;BME280;59834;52.124;5.422;2022-08-21T09:45:17;101681.44;;;22.45;62.97
71964;BME280;59834;52.124;5.422;2022-08-21T09:47:44;101678.28;;;22.50;60.97
71964;BME280;59834;52.124;5.422;2022-08-21T09:50:25;101679.16;;;22.50;61.75
71964;BME280;59834;52.124;5.422;2022-08-21T09:52:58;101687.22;;;22.41;60.06
71964;BME280;59834;52.124;5.422;2022-08-21T09:55:33;101680.31;;;22.74;60.32
71964;BME280;59834;52.124;5.422;2022-08-21T09:58:19;101679.81;;;22.96;59.09
71964;BME280;59834;52.124;5.422;2022-08-21T10:00:57;101676.94;;;22.46;61.33
71964;BME280;59834;52.124;5.422;2022-08-21T10:03:25;101663.44;;;22.11;61.67
71964;BME280;59834;52.124;5.422;2022-08-21T10:05:55;101667.31;;;21.81;62.46
71964;BME280;59834;52.124;5.422;2022-08-21T10:08:25;101660.38;;;21.71;63.26
71964;BME280;59834;52.124;5.422;2022-08-21T10:11:10;101660.72;;;21.58;63.13
71964;BME280;59834;52.124;5.422;2022-08-21T10:17:01;101666.28;;;21.64;63.39
71964;BME280;59834;52.124;5.422;2022-08-21T10:22:41;101666.19;;;21.84;62.84
71964;BME280;59834;52.124;5.422;2022-08-21T10:25:35;101669.06;;;21.91;63.81
71964;BME280;59834;52.124;5.422;2022-08-21T10:28:15;101662.25;;;22.24;61.62
71964;BME280;59834;52.124;5.422;2022-08-21T10:30:54;101663.13;;;22.50;61.70
71964;BME280;59834;52.124;5.422;2022-08-21T10:33:45;101653.56;;;22.66;61.18
71964;BME280;59834;52.124;5.422;2022-08-21T10:36:22;101652.59;;;22.93;57.96
71964;BME280;59834;52.124;5.422;2022-08-21T10:47:19;101643.91;;;23.33;57.33
71964;BME280;59834;52.124;5.422;2022-08-21T10:50:12;101643.97;;;23.49;57.07
71964;BME280;59834;52.124;5.422;2022-08-21T10:55:26;101641.94;;;23.35;56.24
71964;BME280;59834;52.124;5.422;2022-08-21T10:58:23;101638.19;;;23.62;55.29
71964;BME280;59834;52.124;5.422;2022-08-21T11:00:56;101637.56;;;23.76;55.07
71964;BME280;59834;52.124;5.422;2022-08-21T11:03:43;101629.75;;;23.91;53.04
71964;BME280;59834;52.124;5.422;2022-08-21T11:06:17;101634.41;;;23.97;52.72
71964;BME280;59834;52.124;5.422;2022-08-21T11:08:46;101631.91;;;24.04;52.70
71964;BME280;59834;52.124;5.422;2022-08-21T11:11:24;101636.09;;;24.23;53.85
71964;BME280;59834;52.124;5.422;2022-08-21T11:14:20;101634.09;;;24.33;53.02
71964;BME280;59834;52.124;5.422;2022-08-21T11:17:06;101636.59;;;24.51;51.87
71964;BME280;59834;52.124;5.422;2022-08-21T11:19:50;101632.25;;;24.26;51.58
71964;BME280;59834;52.124;5.422;2022-08-21T11:22:27;101633.22;;;23.75;51.97
71964;BME280;59834;52.124;5.422;2022-08-21T11:27:44;101622.66;;;23.66;52.95
71964;BME280;59834;52.124;5.422;2022-08-21T11:30:12;101626.56;;;24.12;51.77
71964;BME280;59834;52.124;5.422;2022-08-21T11:35:58;101618.53;;;24.53;52.21
71964;BME280;59834;52.124;5.422;2022-08-21T11:38:39;101629.41;;;24.27;50.71
71964;BME280;59834;52.124;5.422;2022-08-21T11:49:30;101623.56;;;23.99;52.50
71964;BME280;59834;52.124;5.422;2022-08-21T11:52:18;101635.94;;;24.16;52.46
71964;BME280;59834;52.124;5.422;2022-08-21T11:55:17;101631.72;;;23.97;52.14
71964;BME280;59834;52.124;5.422;2022-08-21T11:57:58;101634.09;;;24.09;51.55
71964;BME280;59834;52.124;5.422;2022-08-21T12:00:29;101654.13;;;23.88;53.16
71964;BME280;59834;52.124;5.422;2022-08-21T12:03:11;101647.44;;;24.00;52.19
71964;BME280;59834;52.124;5.422;2022-08-21T12:05:42;101653.63;;;23.85;52.63
71964;BME280;59834;52.124;5.422;2022-08-21T12:08:26;101654.66;;;23.49;52.98
71964;BME280;59834;52.124;5.422;2022-08-21T12:11:07;101650.06;;;23.25;55.10
71964;BME280;59834;52.124;5.422;2022-08-21T12:13:38;101644.53;;;23.11;55.80
71964;BME280;59834;52.124;5.422;2022-08-21T12:16:27;101648.47;;;23.06;56.31
71964;BME280;59834;52.124;5.422;2022-08-21T12:19:11;101652.56;;;23.19;56.13
71964;BME280;59834;52.124;5.422;2022-08-21T12:26:58;101646.06;;;23.21;56.61
71964;BME280;59834;52.124;5.422;2022-08-21T12:29:31;101645.56;;;23.18;56.44
71964;BME280;59834;52.124;5.422;2022-08-21T12:37:10;101644.28;;;23.89;55.83
71964;BME280;59834;52.124;5.422;2022-08-21T12:39:44;101645.13;;;24.22;52.96
71964;BME280;59834;52.124;5.422;2022-08-21T12:42:24;101637.78;;;23.91;53.09
71964;BME280;59834;52.124;5.422;2022-08-21T12:45:00;101643.41;;;23.72;54.10
71964;BME280;59834;52.124;5.422;2022-08-21T12:47:45;101642.41;;;23.73;54.24
71964;BME280;59834;52.124;5.422;2022-08-21T12:50:22;101648.13;;;24.19;52.41
71964;BME280;59834;52.124;5.422;2022-08-21T12:53:04;101634.53;;;24.78;50.74
71964;BME280;59834;52.124;5.422;2022-08-21T12:55:46;101633.66;;;25.02;49.48
71964;BME280;59834;52.124;5.422;2022-08-21T12:58:21;101639.66;;;25.04;49.04
71964;BME280;59834;52.124;5.422;2022-08-21T13:00:54;101636.00;;;24.97;49.61
71964;BME280;59834;52.124;5.422;2022-08-21T13:03:22;101636.03;;;24.80;48.38
71964;BME280;59834;52.124;5.422;2022-08-21T13:05:50;101636.91;;;24.73;49.45
71964;BME280;59834;52.124;5.422;2022-08-21T13:08:21;101642.91;;;24.75;49.57
71964;BME280;59834;52.124;5.422;2022-08-21T13:10:57;101650.47;;;24.38;49.96
71964;BME280;59834;52.124;5.422;2022-08-21T13:13:39;101649.81;;;24.28;49.14
71964;BME280;59834;52.124;5.422;2022-08-21T13:16:19;101652.81;;;24.09;50.01
71964;BME280;59834;52.124;5.422;2022-08-21T13:19:05;101647.44;;;24.00;51.81
71964;BME280;59834;52.124;5.422;2022-08-21T13:21:39;101659.16;;;23.91;51.29
71964;BME280;59834;52.124;5.422;2022-08-21T13:24:24;101650.13;;;23.92;52.71
71964;BME280;59834;52.124;5.422;2022-08-21T13:27:19;101648.97;;;23.95;52.85
71964;BME280;59834;52.124;5.422;2022-08-21T13:29:46;101650.81;;;24.03;52.70
71964;BME280;59834;52.124;5.422;2022-08-21T13:32:22;101647.47;;;24.09;53.19
71964;BME280;59834;52.124;5.422;2022-08-21T13:34:51;101645.44;;;24.03;53.03
71964;BME280;59834;52.124;5.422;2022-08-21T13:37:21;101642.59;;;23.96;53.70
71964;BME280;59834;52.124;5.422;2022-08-21T13:39:52;101645.09;;;23.97;52.86
71964;BME280;59834;52.124;5.422;2022-08-21T13:42:18;101646.47;;;24.10;52.69
71964;BME280;59834;52.124;5.422;2022-08-21T13:44:47;101645.13;;;24.30;52.56
71964;BME280;59834;52.124;5.422;2022-08-21T13:47:16;101637.78;;;24.49;51.74
71964;BME280;59834;52.124;5.422;2022-08-21T13:49:45;101645.63;;;24.26;51.19
71964;BME280;59834;52.124;5.422;2022-08-21T13:52:24;101644.63;;;24.02;51.95
71964;BME280;59834;52.124;5.422;2022-08-21T13:54:57;101642.09;;;24.00;52.01
71964;BME280;59834;52.124;5.422;2022-08-21T13:57:34;101640.75;;;23.96;52.40
71964;BME280;59834;52.124;5.422;2022-08-21T14:00:11;101644.63;;;24.02;52.55
71964;BME280;59834;52.124;5.422;2022-08-21T14:02:45;101643.78;;;24.02;51.25
71964;BME280;59834;52.124;5.422;2022-08-21T14:05:21;101642.59;;;24.04;52.56
71964;BME280;59834;52.124;5.422;2022-08-21T14:07:50;101635.91;;;24.00;52.20
71964;BME280;59834;52.124;5.422;2022-08-21T14:10:20;101643.47;;;24.05;53.29
71964;BME280;59834;52.124;5.422;2022-08-21T14:12:54;101637.78;;;24.32;52.92